Time;durP1;ratioP1;P1;durP2;ratioP2;P2;SDS_P1;SDS_P2;PMS_P1;PMS_P2;Temp;Humidity;BMP_temperature;BMP_pressure;BME280_temperature;BME280_humidity;BME280_pressure;Samples;Min_cycle;Max_cycle;Signal;HPM_P1;HPM_P2
2022/07/30 00:00:12;;;;;;;17.23;10.05;;;;;;;21.81;79.14;100950.72;1958500;73;21022;-67
2022/07/30 00:02:40;;;;;;;18.52;9.80;;;;;;;21.78;79.65;100945.11;1958515;73;21011;-68
2022/07/30 00:05:10;;;;;;;17.05;9.93;;;;;;;21.77;79.73;100953.64;1958390;72;21093;-68
2022/07/30 00:07:39;;;;;;;19.77;11.12;;;;;;;21.75;79.97;100950.74;1958599;73;21015;-67
2022/07/30 00:10:08;;;;;;;16.67;8.15;;;;;;;21.69;80.61;100941.84;1958493;73;21085;-68
2022/07/30 00:12:37;;;;;;;21.50;10.28;;;;;;;21.61;80.30;100948.34;1958631;73;21014;-67
2022/07/30 00:15:07;;;;;;;18.10;10.68;;;;;;;21.57;80.64;100948.59;1958478;73;21107;-68
2022/07/30 00:17:35;;;;;;;18.87;10.43;;;;;;;21.56;80.54;100944.22;1958800;73;21027;-68
2022/07/30 00:20:05;;;;;;;18.70;10.70;;;;;;;21.55;80.36;100945.68;1958440;73;21168;-68
2022/07/30 00:22:33;;;;;;;19.37;10.80;;;;;;;21.53;80.70;100944.47;1958478;72;21034;-67
2022/07/30 00:25:02;;;;;;;17.17;9.35;;;;;;;21.51;81.00;100933.03;1958489;73;21019;-68
2022/07/30 00:27:33;;;;;;;20.72;9.25;;;;;;;21.49;80.68;100932.80;1958469;73;21027;-68
2022/07/30 00:30:02;;;;;;;19.82;9.80;;;;;;;21.48;80.48;100939.13;1958486;73;21023;-68
2022/07/30 00:32:30;;;;;;;18.82;11.18;;;;;;;21.45;80.71;100935.34;1958379;73;21501;-67
2022/07/30 00:34:59;;;;;;;19.07;9.63;;;;;;;21.41;81.17;100941.41;1958471;73;21023;-68
2022/07/30 00:37:28;;;;;;;19.07;10.55;;;;;;;21.39;81.05;100942.90;1958521;73;21022;-67
2022/07/30 00:39:56;;;;;;;16.42;9.50;;;;;;;21.38;81.27;100939.00;1958412;73;21092;-67
2022/07/30 00:42:26;;;;;;;15.23;9.13;;;;;;;21.37;81.46;100942.64;1958507;73;21070;-68
2022/07/30 00:44:55;;;;;;;17.32;9.20;;;;;;;21.36;81.33;100942.30;1949050;72;21172;-68
2022/07/30 00:47:24;;;;;;;17.35;10.13;;;;;;;21.32;81.22;100938.14;1939795;74;21023;-69
2022/07/30 00:49:52;;;;;;;19.45;9.85;;;;;;;21.28;81.31;100944.73;1939892;74;21427;-67
2022/07/30 00:52:21;;;;;;;21.50;10.18;;;;;;;21.24;81.67;100944.63;1939810;74;21019;-67
2022/07/30 00:54:50;;;;;;;18.25;10.72;;;;;;;21.18;81.91;100938.78;1939689;73;21039;-67
2022/07/30 00:57:18;;;;;;;15.50;9.45;;;;;;;21.17;82.27;100941.58;1939588;74;21093;-68
2022/07/30 00:59:47;;;;;;;16.85;10.40;;;;;;;21.14;82.10;100946.70;1939621;74;21147;-67
2022/07/30 01:02:16;;;;;;;18.48;9.68;;;;;;;21.13;81.98;100949.00;1939741;74;21085;-68
2022/07/30 01:04:44;;;;;;;18.00;10.05;;;;;;;21.10;82.25;100940.36;1939666;73;21520;-68
2022/07/30 01:07:13;;;;;;;22.15;10.28;;;;;;;21.09;82.58;100940.02;1939657;74;21023;-68
2022/07/30 01:09:42;;;;;;;18.35;9.63;;;;;;;21.07;82.63;100948.16;1939680;74;21490;-68
2022/07/30 01:12:13;;;;;;;21.00;9.58;;;;;;;21.06;82.61;100949.13;1939599;74;21128;-68
2022/07/30 01:14:41;;;;;;;21.15;10.15;;;;;;;21.03;82.57;100948.05;1938758;74;21039;-67
2022/07/30 01:17:10;;;;;;;16.85;9.78;;;;;;;21.01;82.58;100944.65;1939730;74;21019;-67
2022/07/30 01:19:54;;;;;;;17.77;10.95;;;;;;;20.99;82.53;100941.25;1939918;74;21470;-68
2022/07/30 01:22:29;;;;;;;23.87;10.38;;;;;;;20.97;82.79;100941.83;1939722;74;21035;-68
2022/07/30 01:25:26;;;;;;;20.90;10.80;;;;;;;20.95;82.82;100943.78;1939754;74;21016;-67
2022/07/30 01:28:10;;;;;;;22.80;12.25;;;;;;;20.91;82.89;100942.33;1939799;73;21036;-67
2022/07/30 01:30:42;;;;;;;;;;;;;;;20.88;83.22;100935.88;1942605;74;21117;-69
2022/07/30 01:33:17;;;;;;;18.57;10.50;;;;;;;20.86;83.07;100941.84;1939867;74;20338;-67
2022/07/30 01:35:48;;;;;;;17.05;11.18;;;;;;;20.83;82.58;100947.80;1939786;74;21074;-68
2022/07/30 01:38:20;;;;;;;18.98;10.72;;;;;;;20.81;82.50;100943.05;1940023;74;21024;-68
2022/07/30 01:40:52;;;;;;;14.98;9.68;;;;;;;20.79;82.74;100938.31;1939939;74;21043;-69
2022/07/30 01:43:22;;;;;;;20.27;10.60;;;;;;;20.77;82.75;100938.93;1939784;74;21012;-68
2022/07/30 01:45:53;;;;;;;20.25;9.90;;;;;;;20.76;83.23;100927.84;1942585;73;21039;-67
2022/07/30 01:48:25;;;;;;;20.35;10.72;;;;;;;20.76;83.39;100937.21;1945398;74;21000;-67
2022/07/30 01:50:58;;;;;;;16.30;9.98;;;;;;;20.76;83.30;100931.86;1945533;74;21032;-67
2022/07/30 01:53:29;;;;;;;17.92;10.43;;;;;;;20.74;83.09;100933.81;1945331;74;21066;-67
2022/07/30 01:56:00;;;;;;;17.15;10.20;;;;;;;20.70;83.25;100936.37;1945249;74;21051;-68
2022/07/30 01:58:32;;;;;;;16.60;9.65;;;;;;;20.70;83.38;100934.19;1945446;74;21572;-67
2022/07/30 02:01:03;;;;;;;19.77;11.20;;;;;;;20.68;83.12;100936.13;1944188;72;21050;-68
2022/07/30 02:03:32;;;;;;;22.73;10.55;;;;;;;20.67;83.38;100937.94;1945485;73;21523;-68
2022/07/30 02:06:07;;;;;;;18.92;10.35;;;;;;;20.65;83.22;100934.53;1945427;73;21085;-69
2022/07/30 02:08:41;;;;;;;18.12;10.03;;;;;;;20.63;83.05;100928.45;1945353;73;20995;-68
2022/07/30 02:11:13;;;;;;;22.40;11.20;;;;;;;20.60;82.88;100933.57;1943636;73;21039;-68
2022/07/30 02:13:44;;;;;;;19.57;10.70;;;;;;;20.61;82.86;100935.75;1945468;73;21030;-68
2022/07/30 02:16:22;;;;;;;20.48;11.55;;;;;;;20.60;82.85;100935.34;1943192;73;21019;-68
2022/07/30 02:19:05;;;;;;;21.07;11.48;;;;;;;20.58;83.19;100938.16;1867745;75;21054;-67
2022/07/30 02:21:36;;;;;;;24.37;11.53;;;;;;;20.59;83.25;100941.19;1903136;75;21127;-68
2022/07/30 02:24:08;;;;;;;18.77;11.38;;;;;;;20.60;83.20;100942.03;1945467;74;21035;-67
2022/07/30 02:26:38;;;;;;;20.57;11.43;;;;;;;20.60;83.09;100944.70;1945280;73;21532;-68
2022/07/30 02:29:07;;;;;;;20.52;10.85;;;;;;;20.59;83.03;100941.19;1945243;74;21051;-69
2022/07/30 02:31:38;;;;;;;24.43;11.83;;;;;;;20.62;83.19;100945.50;1945479;74;21132;-68
2022/07/30 02:34:08;;;;;;;17.75;10.93;;;;;;;20.62;83.23;100942.33;1945329;74;21074;-68
2022/07/30 02:36:39;;;;;;;17.57;10.08;;;;;;;20.63;83.12;100945.84;1945417;74;21074;-67
2022/07/30 02:39:10;;;;;;;19.35;11.20;;;;;;;20.63;83.01;100947.18;1945273;73;21046;-68
2022/07/30 02:41:40;;;;;;;22.13;12.93;;;;;;;20.64;83.11;100946.23;1945205;74;21031;-69
2022/07/30 02:44:09;;;;;;;23.90;12.60;;;;;;;20.63;83.42;100945.84;1945491;74;21426;-68
2022/07/30 02:46:40;;;;;;;21.50;10.32;;;;;;;20.66;83.45;100944.28;1945273;73;21485;-68
2022/07/30 02:49:12;;;;;;;22.32;12.05;;;;;;;20.71;83.31;100946.58;1928192;74;21108;-68
2022/07/30 02:51:42;;;;;;;17.75;11.25;;;;;;;20.74;83.11;100939.66;1945535;73;21027;-68
2022/07/30 02:54:12;;;;;;;18.67;11.20;;;;;;;20.77;82.98;100941.61;1945093;74;21598;-69
2022/07/30 02:56:42;;;;;;;17.87;9.78;;;;;;;20.78;82.80;100944.63;1945383;74;20996;-68
2022/07/30 02:59:11;;;;;;;18.17;10.30;;;;;;;20.79;82.60;100945.01;1945312;74;21093;-68
2022/07/30 03:01:44;;;;;;;19.67;10.72;;;;;;;20.82;82.51;100947.91;1945469;74;21063;-67
2022/07/30 03:04:14;;;;;;;14.33;9.15;;;;;;;21.00;82.61;100949.63;1945434;74;21016;-67
2022/07/30 03:06:45;;;;;;;16.48;9.93;;;;;;;21.19;82.50;100956.56;1945305;74;21011;-68
2022/07/30 03:09:17;;;;;;;21.95;10.08;;;;;;;21.35;82.22;100948.62;1945410;73;21088;-67
2022/07/30 03:11:47;;;;;;;15.75;9.65;;;;;;;21.49;82.05;100943.52;1945450;74;21077;-67
2022/07/30 03:14:16;;;;;;;17.15;8.83;;;;;;;21.63;81.62;100946.39;1945241;74;21458;-68
2022/07/30 03:16:47;;;;;;;16.87;9.08;;;;;;;21.77;81.32;100945.60;1945325;74;21007;-68
2022/07/30 03:19:18;;;;;;;;;;;;;;;21.83;81.20;100949.60;1948116;74;21078;-68
2022/07/30 03:21:48;;;;;;;24.40;10.03;;;;;;;21.87;80.99;100947.02;1945339;74;20457;-68
2022/07/30 03:24:18;;;;;;;17.35;8.80;;;;;;;21.90;80.87;100948.61;1945283;74;21112;-67
2022/07/30 03:26:50;;;;;;;16.27;9.58;;;;;;;21.97;81.03;100951.98;1945336;74;21074;-67
2022/07/30 03:29:20;;;;;;;18.62;8.98;;;;;;;22.03;80.92;100950.62;1945272;74;21023;-67
2022/07/30 03:31:49;;;;;;;19.62;9.13;;;;;;;22.12;80.74;100949.00;1945186;74;21015;-67
2022/07/30 03:34:19;;;;;;;19.32;8.58;;;;;;;22.26;80.73;100951.40;1945465;74;21497;-68
2022/07/30 03:36:49;;;;;;;16.55;8.20;;;;;;;22.41;80.56;100940.31;1945248;74;21493;-67
2022/07/30 03:39:19;;;;;;;18.25;9.15;;;;;;;22.52;80.33;100938.89;1945290;74;21582;-68
2022/07/30 03:41:49;;;;;;;15.00;8.23;;;;;;;22.59;79.64;100937.88;1945297;74;21583;-67
2022/07/30 03:44:18;;;;;;;17.62;9.20;;;;;;;22.65;79.08;100943.58;1945369;74;21024;-67
2022/07/30 03:46:49;;;;;;;17.15;8.28;;;;;;;22.75;78.86;100940.43;1949043;73;21102;-67
2022/07/30 03:49:21;;;;;;;20.80;8.65;;;;;;;22.90;78.78;100934.70;1958662;73;21015;-67
2022/07/30 03:51:50;;;;;;;14.98;8.63;;;;;;;23.07;78.78;100943.98;1958488;73;21027;-67
2022/07/30 03:54:20;;;;;;;16.25;8.00;;;;;;;23.27;78.68;100943.05;1958396;73;21386;-67
2022/07/30 03:57:06;;;;;;;17.92;8.58;;;;;;;23.43;78.36;100942.53;1952280;73;21030;-68
2022/07/30 03:59:39;;;;;;;21.82;8.95;;;;;;;23.56;77.66;100939.58;1957743;73;21100;-67
2022/07/30 04:02:08;;;;;;;14.58;7.45;;;;;;;23.68;76.92;100944.31;1958357;73;21076;-68
2022/07/30 04:04:48;;;;;;;17.20;7.87;;;;;;;23.79;76.15;100942.90;1824585;78;21090;-68
2022/07/30 04:07:17;;;;;;;12.40;7.25;;;;;;;23.99;75.74;100945.56;1958358;73;21575;-67
2022/07/30 04:09:46;;;;;;;10.95;6.78;;;;;;;24.23;75.35;100946.47;1958448;72;21019;-67
2022/07/30 04:12:18;;;;;;;;;;;;;;;24.40;74.56;100944.40;1957121;73;21453;-69
2022/07/30 04:14:48;;;;;;;16.73;8.23;;;;;;;24.66;74.38;100943.80;1958401;73;20139;-68
2022/07/30 04:17:27;;;;;;;14.13;7.92;;;;;;;24.89;73.52;100944.26;1958520;72;21523;-68
2022/07/30 04:20:02;;;;;;;19.25;8.83;;;;;;;25.11;72.68;100936.80;1958406;73;21629;-67
2022/07/30 04:22:36;;;;;;;14.25;8.48;;;;;;;25.34;71.93;100938.12;1958482;73;21104;-68
2022/07/30 04:25:06;;;;;;;16.37;9.48;;;;;;;25.67;71.52;100943.83;1929334;73;21023;-67
2022/07/30 04:27:37;;;;;;;19.87;9.75;;;;;;;26.03;70.93;100938.98;1958555;73;20995;-67
2022/07/30 04:30:06;;;;;;;22.37;9.90;;;;;;;26.31;70.11;100938.34;1958329;73;21535;-68
2022/07/30 04:32:37;;;;;;;20.27;10.58;;;;;;;26.56;69.49;100936.66;1958338;72;21046;-67
2022/07/30 04:35:16;;;;;;;22.25;10.80;;;;;;;26.85;68.77;100940.36;1880330;76;21050;-67
2022/07/30 04:37:50;;;;;;;21.15;10.55;;;;;;;27.18;68.44;100943.21;1932448;73;21062;-68
2022/07/30 04:40:19;;;;;;;18.10;8.58;;;;;;;27.50;68.28;100945.69;1958440;73;21116;-67
2022/07/30 04:42:48;;;;;;;16.30;9.33;;;;;;;27.84;67.77;100941.52;1958377;73;21195;-67
2022/07/30 04:45:19;;;;;;;19.57;8.43;;;;;;;28.17;67.22;100945.63;1958438;73;21551;-67
2022/07/30 04:47:52;;;;;;;16.67;8.83;;;;;;;28.46;66.66;100948.30;1948222;72;21564;-67
2022/07/30 04:50:35;;;;;;;17.25;9.45;;;;;;;28.75;66.20;100946.38;1898727;74;21545;-67
2022/07/30 04:53:06;;;;;;;16.97;9.23;;;;;;;29.02;65.46;100949.69;1939638;74;21058;-67
2022/07/30 04:55:39;;;;;;;18.12;9.33;;;;;;;29.28;64.87;100955.36;1939451;74;21451;-67
2022/07/30 04:58:10;;;;;;;15.75;8.98;;;;;;;29.56;64.20;100957.89;1939806;74;21136;-67
2022/07/30 05:00:43;;;;;;;16.20;9.28;;;;;;;29.82;63.51;100959.44;1939864;74;21096;-67
2022/07/30 05:03:14;;;;;;;14.73;8.85;;;;;;;30.05;63.08;100964.88;1939702;74;21530;-67
2022/07/30 05:05:47;;;;;;;12.35;8.45;;;;;;;30.30;62.60;100960.05;1939619;74;21196;-67
2022/07/30 05:08:16;;;;;;;13.98;8.85;;;;;;;30.55;61.93;100963.41;1939816;74;21077;-67
2022/07/30 05:10:46;;;;;;;14.83;8.98;;;;;;;30.81;60.89;100962.63;1939745;74;21027;-67
2022/07/30 05:13:15;;;;;;;20.92;8.48;;;;;;;30.96;59.52;100962.13;1939963;73;21015;-67
2022/07/30 05:15:44;;;;;;;15.43;8.68;;;;;;;31.10;58.80;100962.64;1939839;74;21486;-67
2022/07/30 05:18:14;;;;;;;13.85;8.88;;;;;;;31.18;58.26;100961.69;1939730;74;21761;-67
2022/07/30 05:20:45;;;;;;;17.37;8.30;;;;;;;31.30;57.39;100960.67;1940084;73;21098;-67
2022/07/30 05:23:18;;;;;;;15.88;9.48;;;;;;;31.43;57.20;100964.92;1939201;74;21122;-67
2022/07/30 05:25:48;;;;;;;15.15;7.47;;;;;;;31.67;56.83;100962.88;1937947;74;21101;-67
2022/07/30 05:28:19;;;;;;;14.38;8.88;;;;;;;31.86;56.41;100959.53;1937600;74;21097;-68
2022/07/30 05:30:48;;;;;;;13.15;9.13;;;;;;;32.12;56.03;100958.12;1939853;74;21070;-68
2022/07/30 05:33:18;;;;;;;13.80;8.55;;;;;;;32.19;55.00;100956.30;1939777;74;21094;-67
2022/07/30 05:35:48;;;;;;;17.52;8.33;;;;;;;32.30;54.01;100958.47;1939860;74;21047;-67
2022/07/30 05:38:17;;;;;;;10.65;8.33;;;;;;;32.50;53.51;100957.79;1939935;74;21465;-67
2022/07/30 05:40:51;;;;;;;13.18;8.80;;;;;;;32.65;53.03;100952.25;1934545;74;21168;-68
2022/07/30 05:43:37;;;;;;;15.45;8.70;;;;;;;32.72;52.15;100955.00;1939798;74;21548;-68
2022/07/30 05:46:06;;;;;;;16.60;8.33;;;;;;;32.83;51.80;100955.80;1939829;74;21051;-68
2022/07/30 05:48:35;;;;;;;15.68;8.83;;;;;;;32.96;51.33;100953.16;1942084;72;21078;-68
2022/07/30 05:51:05;;;;;;;10.58;7.67;;;;;;;33.14;50.50;100951.78;1945375;73;21000;-68
2022/07/30 05:53:34;;;;;;;12.18;8.15;;;;;;;33.36;50.29;100950.59;1945210;74;21433;-68
2022/07/30 05:56:07;;;;;;;11.95;7.62;;;;;;;33.49;50.12;100954.41;1872031;73;21065;-68
2022/07/30 05:58:44;;;;;;;14.35;9.13;;;;;;;33.76;49.84;100954.81;1942806;73;21054;-68
2022/07/30 06:01:13;;;;;;;15.65;9.70;;;;;;;33.99;49.27;100952.20;1924516;74;21003;-68
2022/07/30 06:03:42;;;;;;;14.50;8.53;;;;;;;34.21;48.55;100944.66;1945375;73;21143;-68
2022/07/30 06:06:21;;;;;;;13.30;7.92;;;;;;;34.31;48.05;100945.63;1902734;74;21030;-68
2022/07/30 06:08:50;;;;;;;12.50;7.30;;;;;;;34.60;47.68;100946.52;1945335;74;21469;-68
2022/07/30 06:11:19;;;;;;;15.43;8.68;;;;;;;34.86;47.17;100945.30;1945566;74;21536;-68
2022/07/30 06:13:48;;;;;;;14.93;8.65;;;;;;;35.09;46.04;100937.95;1945448;74;21619;-68
2022/07/30 06:16:17;;;;;;;19.10;8.75;;;;;;;35.09;46.04;100937.95;1945271;74;21047;-69
2022/07/30 06:18:46;;;;;;;19.65;8.80;;;;;;;35.03;44.86;100936.07;1945400;74;21525;-68
2022/07/30 06:21:16;;;;;;;11.97;7.85;;;;;;;35.14;45.34;100938.98;1944066;73;21125;-68
2022/07/30 06:23:47;;;;;;;13.10;8.88;;;;;;;35.17;45.05;100934.45;1937504;74;21034;-68
2022/07/30 06:26:17;;;;;;;18.57;9.35;;;;;;;35.08;44.73;100929.42;1944785;73;21050;-68
2022/07/30 06:28:46;;;;;;;12.47;8.78;;;;;;;35.10;44.53;100928.17;1945329;74;21055;-68
2022/07/30 06:31:16;;;;;;;14.45;9.43;;;;;;;35.26;44.38;100929.57;1943796;73;21045;-69
2022/07/30 06:33:45;;;;;;;18.25;9.10;;;;;;;35.45;44.00;100920.09;1945389;74;21023;-69
2022/07/30 06:36:14;;;;;;;18.10;8.33;;;;;;;35.56;43.93;100920.75;1945327;74;21108;-69
2022/07/30 06:38:50;;;;;;;17.52;9.25;;;;;;;35.85;43.41;100922.59;1944577;73;21081;-68
2022/07/30 06:41:20;;;;;;;15.05;8.38;;;;;;;36.16;43.46;100922.22;1944652;73;21160;-68
2022/07/30 06:43:50;;;;;;;13.60;8.00;;;;;;;36.41;42.70;100924.42;1944860;74;21536;-69
2022/07/30 06:46:23;;;;;;;12.05;8.25;;;;;;;36.56;42.39;100919.08;1871957;73;21050;-68
2022/07/30 06:48:53;;;;;;;14.00;8.05;;;;;;;36.81;42.15;100922.62;1943957;72;21039;-68
2022/07/30 06:51:22;;;;;;;13.40;8.43;;;;;;;36.92;41.72;100916.06;1939718;74;21055;-68
2022/07/30 06:53:51;;;;;;;15.58;8.45;;;;;;;37.03;41.50;100918.02;1939690;74;21473;-69
2022/07/30 06:56:27;;;;;;;15.88;7.97;;;;;;;37.06;41.04;100918.95;1934889;74;21497;-68
2022/07/30 06:58:57;;;;;;;13.08;7.53;;;;;;;37.29;40.57;100920.42;1939270;74;21153;-67
2022/07/30 07:01:44;;;;;;;14.70;8.38;;;;;;;37.37;40.29;100920.66;1939749;74;21038;-67
2022/07/30 07:04:13;;;;;;;12.80;7.47;;;;;;;37.46;40.21;100922.51;1939793;74;21540;-69
2022/07/30 07:06:42;;;;;;;12.90;7.50;;;;;;;37.66;39.80;100921.73;1939761;74;21172;-67
2022/07/30 07:09:12;;;;;;;18.60;8.40;;;;;;;37.70;39.56;100918.48;1938872;74;21595;-67
2022/07/30 07:11:42;;;;;;;16.45;8.53;;;;;;;37.76;39.52;100916.19;1938627;74;21050;-67
2022/07/30 07:14:13;;;;;;;12.10;7.30;;;;;;;37.94;38.96;100916.61;1939749;74;21051;-67
2022/07/30 07:16:41;;;;;;;17.77;8.38;;;;;;;37.95;38.61;100912.80;1939941;74;21494;-67
2022/07/30 07:19:29;;;;;;;17.82;8.03;;;;;;;37.97;38.27;100901.85;1939736;74;21046;-67
2022/07/30 07:21:57;;;;;;;12.40;8.28;;;;;;;38.16;38.29;100910.02;1939734;74;21117;-66
2022/07/30 07:24:26;;;;;;;11.65;7.78;;;;;;;38.22;38.12;100910.45;1939811;74;21049;-67
2022/07/30 07:26:56;;;;;;;13.18;7.00;;;;;;;38.39;38.03;100910.00;1939505;74;21160;-67
2022/07/30 07:29:26;;;;;;;10.68;7.22;;;;;;;38.51;37.71;100908.59;1939685;74;21113;-66
2022/07/30 07:31:55;;;;;;;11.90;7.67;;;;;;;38.67;37.52;100905.67;1939748;74;20999;-66
2022/07/30 07:34:24;;;;;;;14.78;7.62;;;;;;;38.90;37.38;100902.03;1939855;74;21136;-66
2022/07/30 07:36:53;;;;;;;13.88;7.50;;;;;;;39.00;37.07;100908.27;1939681;73;21039;-67
2022/07/30 07:39:22;;;;;;;11.33;7.05;;;;;;;39.17;37.10;100904.22;1939725;74;21543;-68
2022/07/30 07:41:52;;;;;;;9.45;6.92;;;;;;;39.35;37.02;100901.25;1939610;74;21113;-67
2022/07/30 07:44:22;;;;;;;10.03;6.90;;;;;;;39.47;36.86;100898.48;1939404;74;21023;-66
2022/07/30 07:46:50;;;;;;;18.30;7.45;;;;;;;39.66;36.35;100898.24;1939801;74;21148;-66
2022/07/30 07:49:19;;;;;;;10.20;6.65;;;;;;;39.66;36.04;100899.07;1939625;72;21513;-66
2022/07/30 07:51:50;;;;;;;12.53;6.95;;;;;;;39.82;36.14;100893.24;1939524;74;21125;-67
2022/07/30 07:54:20;;;;;;;12.15;8.00;;;;;;;39.92;35.44;100896.76;1939718;74;21048;-66
2022/07/30 07:56:55;;;;;;;10.38;6.58;;;;;;;39.91;35.27;100890.38;1939669;74;21490;-66
2022/07/30 07:59:20;;;;;;;10.23;6.50;;;;;;;40.08;34.99;100892.29;1938140;74;21035;-68
2022/07/30 08:01:49;;;;;;;9.78;6.50;;;;;;;40.06;34.50;100887.58;1939801;74;21019;-67
2022/07/30 08:04:29;;;;;;;10.58;6.65;;;;;;;40.22;34.28;100888.64;1936609;74;21097;-67
2022/07/30 08:07:15;;;;;;;8.23;6.20;;;;;;;40.10;33.73;100882.70;1939620;74;21074;-67
2022/07/30 08:09:57;;;;;;;11.75;6.10;;;;;;;40.09;33.55;100886.53;1939614;74;21474;-67
2022/07/30 08:12:44;;;;;;;8.95;6.42;;;;;;;40.11;33.61;100882.14;1939688;74;21035;-67
2022/07/30 08:15:31;;;;;;;11.40;6.10;;;;;;;40.37;33.29;100890.81;1939629;74;21122;-67
2022/07/30 08:18:07;;;;;;;10.78;6.97;;;;;;;40.13;32.52;100886.30;1872698;74;21112;-67
2022/07/30 08:20:38;;;;;;;13.50;6.87;;;;;;;40.10;33.04;100890.11;1939365;74;21462;-68
2022/07/30 08:23:07;;;;;;;13.50;6.92;;;;;;;40.01;32.89;100889.73;1939824;73;21058;-68
2022/07/30 08:25:36;;;;;;;9.00;6.45;;;;;;;39.91;32.81;100882.12;1939754;74;21031;-68
2022/07/30 08:28:05;;;;;;;9.38;5.87;;;;;;;40.03;33.01;100883.97;1939867;74;20992;-68
2022/07/30 08:30:33;;;;;;;10.82;6.85;;;;;;;40.14;32.86;100883.02;1939946;74;21112;-68
2022/07/30 08:33:03;;;;;;;9.08;6.45;;;;;;;40.07;32.76;100878.23;1939830;74;21047;-68
2022/07/30 08:35:32;;;;;;;9.28;6.25;;;;;;;40.17;32.66;100879.73;1939741;74;21066;-67
2022/07/30 08:38:02;;;;;;;9.88;6.05;;;;;;;40.20;32.58;100887.52;1939746;73;21587;-68
2022/07/30 08:40:33;;;;;;;9.33;6.30;;;;;;;40.15;32.57;100873.64;1939873;73;21160;-67
2022/07/30 08:43:05;;;;;;;13.65;5.85;;;;;;;40.43;32.62;100880.13;1937387;74;21015;-68
2022/07/30 08:45:35;;;;;;;7.95;5.65;;;;;;;40.62;32.29;100874.59;1939924;74;21093;-68
2022/07/30 08:48:25;;;;;;;11.18;6.53;;;;;;;40.76;32.26;100878.33;1934999;74;21067;-67
2022/07/30 08:50:51;;;;;;;9.38;6.55;;;;;;;40.88;32.27;100867.45;1940914;72;21141;-67
2022/07/30 08:53:35;;;;;;;9.78;6.95;;;;;;;40.93;32.48;100869.98;1861516;73;21112;-68
2022/07/30 08:56:06;;;;;;;8.03;6.00;;;;;;;40.95;32.56;100865.89;1945308;74;21482;-67
2022/07/30 08:58:35;;;;;;;11.10;6.47;;;;;;;40.90;32.70;100858.37;1945459;74;21023;-67
2022/07/30 09:01:06;;;;;;;14.05;7.33;;;;;;;40.96;32.19;100856.49;1945288;74;21498;-69
2022/07/30 09:03:36;;;;;;;10.88;6.70;;;;;;;41.11;32.19;100850.28;1945466;74;21089;-68
2022/07/30 09:06:06;;;;;;;8.55;6.80;;;;;;;41.26;32.19;100848.24;1945632;73;21081;-67
2022/07/30 09:08:35;;;;;;;8.05;6.15;;;;;;;41.30;32.37;100850.80;1945362;74;21023;-68
2022/07/30 09:11:03;;;;;;;11.22;6.53;;;;;;;41.07;32.42;100843.07;1945347;73;21536;-68
2022/07/30 09:13:36;;;;;;;9.15;5.85;;;;;;;40.87;32.61;100842.86;1945391;73;21117;-68
2022/07/30 09:16:07;;;;;;;17.50;7.25;;;;;;;40.89;32.43;100851.20;1945488;74;21011;-68
2022/07/30 09:18:41;;;;;;;12.60;6.37;;;;;;;40.74;32.56;100848.77;1945378;73;21050;-68
2022/07/30 09:21:24;;;;;;;12.65;6.33;;;;;;;40.77;32.20;100833.08;1945346;74;21105;-68
2022/07/30 09:23:57;;;;;;;10.55;6.25;;;;;;;41.07;32.05;100837.55;1944573;73;21035;-68
2022/07/30 09:26:59;;;;;;;10.70;6.40;;;;;;;41.16;31.91;100841.23;1945515;74;21055;-67
2022/07/30 09:29:35;;;;;;;8.75;6.22;;;;;;;41.38;32.01;100843.39;1882781;73;21120;-68
2022/07/30 09:32:22;;;;;;;9.10;6.47;;;;;;;41.63;31.64;100837.77;1945249;74;21602;-69
2022/07/30 09:35:13;;;;;;;13.38;6.12;;;;;;;41.78;31.17;100832.39;1821557;78;21146;-68
2022/07/30 09:37:44;;;;;;;10.20;6.05;;;;;;;41.38;31.40;100824.05;1861917;73;21054;-68
2022/07/30 09:40:21;;;;;;;11.63;5.58;;;;;;;40.85;32.02;100821.03;1941333;74;21121;-67
2022/07/30 09:43:03;;;;;;;12.65;5.92;;;;;;;39.98;32.63;100820.48;1866871;73;21047;-68
2022/07/30 09:45:32;;;;;;;9.93;5.87;;;;;;;39.52;33.43;100823.34;1945311;74;21043;-67
2022/07/30 09:48:01;;;;;;;12.63;5.92;;;;;;;39.50;33.64;100813.94;1945325;74;21031;-67
2022/07/30 09:50:30;;;;;;;9.83;5.35;;;;;;;39.53;33.87;100823.09;1945261;74;21108;-67
2022/07/30 09:53:08;;;;;;;10.28;6.20;;;;;;;39.41;33.99;100822.30;1945276;72;21144;-67
2022/07/30 09:55:38;;;;;;;11.53;6.37;;;;;;;38.82;34.47;100812.97;1945523;74;21173;-68
2022/07/30 09:58:07;;;;;;;12.55;6.03;;;;;;;38.74;34.76;100816.95;1945232;74;21130;-68
2022/07/30 10:00:38;;;;;;;8.08;5.00;;;;;;;38.97;34.75;100811.03;1945331;74;21093;-67
2022/07/30 10:03:20;;;;;;;11.05;5.85;;;;;;;39.30;34.47;100809.45;1944691;73;21054;-67
2022/07/30 10:06:06;;;;;;;7.87;5.58;;;;;;;39.63;34.09;100803.67;1945468;74;21442;-67
2022/07/30 10:08:41;;;;;;;6.65;5.33;;;;;;;39.94;34.16;100803.06;1945391;74;21047;-67
2022/07/30 10:11:16;;;;;;;11.20;6.12;;;;;;;39.98;33.97;100802.00;1945301;74;21035;-67
2022/07/30 10:13:48;;;;;;;10.93;5.15;;;;;;;40.01;34.03;100803.41;1945344;74;21183;-68
2022/07/30 10:16:17;;;;;;;11.12;6.10;;;;;;;40.03;34.07;100797.13;1945436;74;21039;-68
2022/07/30 10:18:46;;;;;;;10.90;5.92;;;;;;;39.91;34.15;100788.39;1945327;74;21043;-68
2022/07/30 10:21:33;;;;;;;10.20;6.35;;;;;;;39.88;34.18;100793.03;1945309;74;21039;-68
2022/07/30 10:24:20;;;;;;;12.07;5.72;;;;;;;39.74;34.57;100794.47;1945257;73;21505;-68
2022/07/30 10:26:54;;;;;;;8.25;6.35;;;;;;;39.65;34.77;100792.67;1945248;73;21145;-68
2022/07/30 10:29:43;;;;;;;7.17;5.65;;;;;;;39.55;34.86;100789.23;1944134;72;21054;-69
2022/07/30 10:32:13;;;;;;;10.18;5.17;;;;;;;39.44;34.92;100788.75;1945355;74;21520;-68
2022/07/30 10:34:42;;;;;;;10.43;5.40;;;;;;;39.36;35.15;100787.26;1945375;74;21545;-68
2022/07/30 10:37:15;;;;;;;9.23;5.17;;;;;;;39.35;35.09;100776.48;1945209;74;21486;-68
2022/07/30 10:39:49;;;;;;;9.40;6.58;;;;;;;39.22;35.15;100790.05;1945409;74;21466;-68
2022/07/30 10:42:40;;;;;;;12.53;5.78;;;;;;;39.12;35.27;100789.34;1937733;74;21023;-67
2022/07/30 10:45:21;;;;;;;8.47;5.40;;;;;;;39.03;35.45;100785.33;1945826;74;21524;-68
2022/07/30 10:47:51;;;;;;;9.50;5.50;;;;;;;38.92;35.59;100783.41;1945255;74;21114;-68
2022/07/30 10:50:25;;;;;;;10.70;5.33;;;;;;;38.90;35.77;100777.33;1945477;74;21431;-68
2022/07/30 10:53:00;;;;;;;10.25;5.03;;;;;;;38.88;35.75;100773.44;1945202;73;21050;-68
2022/07/30 10:55:32;;;;;;;21.17;5.97;;;;;;;38.84;35.49;100773.65;1945391;74;21036;-68
2022/07/30 10:58:12;;;;;;;8.43;5.20;;;;;;;38.80;35.60;100762.84;1945257;74;21112;-69
2022/07/30 11:00:52;;;;;;;5.40;4.42;;;;;;;38.77;35.83;100765.56;1945467;74;21011;-68
2022/07/30 11:03:26;;;;;;;8.48;4.78;;;;;;;38.52;35.71;100759.55;1945337;74;21462;-68
2022/07/30 11:06:17;;;;;;;6.85;4.90;;;;;;;38.16;35.82;100754.69;1945360;74;21019;-68
2022/07/30 11:08:47;;;;;;;7.12;4.50;;;;;;;37.89;36.37;100752.45;1945413;74;21422;-68
2022/07/30 11:11:26;;;;;;;5.53;3.98;;;;;;;37.58;36.33;100751.72;1945336;74;20995;-68
2022/07/30 11:14:01;;;;;;;6.92;4.17;;;;;;;37.29;36.16;100748.83;1945530;73;21520;-68
2022/07/30 11:16:35;;;;;;;11.90;6.47;;;;;;;36.90;35.88;100747.00;1945288;74;21047;-68
2022/07/30 11:19:16;;;;;;;8.70;4.53;;;;;;;36.49;35.75;100751.36;1945264;74;21035;-68
2022/07/30 11:21:48;;;;;;;8.68;4.90;;;;;;;36.36;36.30;100746.06;1945324;74;21012;-68
2022/07/30 11:24:43;;;;;;;6.72;4.37;;;;;;;36.21;36.12;100749.20;1945404;74;21085;-68
2022/07/30 11:27:29;;;;;;;5.97;3.90;;;;;;;36.17;36.23;100746.59;1945320;74;21458;-68
2022/07/30 11:29:58;;;;;;;7.12;4.42;;;;;;;36.18;36.06;100752.91;1944926;73;21117;-68
2022/07/30 11:32:30;;;;;;;10.68;5.28;;;;;;;36.08;36.32;100744.69;1945302;74;20999;-68
2022/07/30 11:35:16;;;;;;;;;;;;;;;36.03;36.64;100750.02;1948186;74;21019;-68
2022/07/30 11:38:00;;;;;;;6.17;4.30;;;;;;;36.03;36.64;100748.64;1945243;74;20101;-67
2022/07/30 11:40:32;;;;;;;8.88;4.72;;;;;;;35.93;36.78;100749.18;1937768;73;21033;-68